MSC Armonia — H8EW — position and weather

sailwx.info

Track history (hours):
 
Tides and Currents Weather Stations Pressure Air Temp Water Temp Dewpoint Dewpoint Depression Visibility Wind Speed Wind Dir Waves Ship Positions

MSC Armonia

Operator: Mediterranean Shipping Company

Last reported at 2020-Apr-05 20:00 UTC. Time now 2020-Apr-05 22:21 UTC.
Position N 25°46' W 079°52'.

Length 275 m; draft 6.8 m.

Type: Ship. MMSI: 357281000.

Date/timePositionNaut miles runAvg speedWind from/ knotsBaromVisibWave heightAir tempDewpointWater temp
2020-Apr-05 20:00N 25°46' W 079°52'11 7.2
2020-Apr-05 18:30N 25°36' W 079°47'12 4.8
2020-Apr-05 16:00N 25°46' W 079°40'7 7.1
2020-Apr-05 15:00N 25°53' W 079°41'3 6.9
2020-Apr-05 14:30N 25°55' W 079°45'611.5
2020-Apr-05 14:00N 25°51' W 079°49'611.5
2020-Apr-05 13:30N 25°48' W 079°55'510.7
2020-Apr-05 13:00N 25°48' W 080°01'4 1.9
2020-Apr-05 11:00N 25°48' W 080°05'0 0.0
2020-Apr-05 08:00N 25°48' W 080°05'0 0.0
2020-Apr-05 07:30N 25°48' W 080°05'0 0.0
2020-Apr-05 07:00N 25°48' W 080°05'0 0.0
2020-Apr-05 06:30N 25°48' W 080°05'0 0.0
2020-Apr-05 01:30N 25°48' W 080°05'0 0.0
2020-Apr-04 23:30N 25°48' W 080°05'0 0.0
2020-Apr-04 22:00N 25°48' W 080°05'0 0.0
2020-Apr-04 21:30N 25°48' W 080°05'0 0.0
2020-Apr-04 20:00N 25°48' W 080°05'0 0.0
2020-Apr-04 19:30N 25°48' W 080°05'0 0.0
2020-Apr-04 17:00N 25°48' W 080°05'0 0.0
2020-Apr-04 15:57N 25°48' W 080°05'0 0.0
2020-Apr-04 15:00N 25°48' W 080°05'0 0.0
2020-Apr-04 14:30N 25°48' W 080°05'0 0.0
2020-Apr-04 13:57N 25°48' W 080°05'0 0.0
2020-Apr-04 13:30N 25°48' W 080°05'0 0.0
2020-Apr-04 11:30N 25°48' W 080°05'0 0.0
2020-Apr-04 11:00N 25°48' W 080°05'0 0.0
2020-Apr-04 10:30N 25°48' W 080°05'0 0.0
2020-Apr-04 10:00N 25°48' W 080°05'0 0.0
2020-Apr-04 07:30N 25°48' W 080°05'0 0.0
2020-Apr-04 04:00N 25°48' W 080°05'0 0.0
2020-Apr-04 03:00N 25°48' W 080°05'0 0.0
2020-Apr-04 02:30N 25°48' W 080°05'0 0.0
2020-Apr-04 01:00N 25°48' W 080°05'0 0.0
2020-Apr-03 22:30N 25°48' W 080°05'0 0.0
2020-Apr-03 22:00N 25°48' W 080°05'0 0.0
2020-Apr-03 21:30N 25°48' W 080°05'0 0.0
2020-Apr-03 20:30N 25°48' W 080°05'0 0.0
2020-Apr-03 19:30N 25°48' W 080°05'0 0.0
2020-Apr-03 16:30N 25°48' W 080°05'0 0.0
2020-Apr-03 16:00N 25°48' W 080°05'0 0.0
2020-Apr-03 15:30N 25°48' W 080°05'0 0.0
2020-Apr-03 12:54N 25°48' W 080°05'0 0.0
2020-Apr-03 11:00N 25°48' W 080°05'0 0.0
2020-Apr-03 10:00N 25°48' W 080°05'0 0.0
2020-Apr-03 08:00N 25°48' W 080°05'0 0.0
2020-Apr-03 07:30N 25°48' W 080°05'0 0.0
2020-Apr-03 06:00N 25°48' W 080°05'0 0.1
2020-Apr-03 05:30N 25°48' W 080°05'0 0.0
2020-Apr-03 04:57N 25°48' W 080°05'0 0.0
2020-Apr-03 04:00N 25°48' W 080°05'0 0.0
2020-Apr-03 03:30N 25°48' W 080°05'0 0.0
2020-Apr-03 02:30N 25°48' W 080°05'0 0.0
2020-Apr-02 21:30N 25°48' W 080°05'0 0.0
2020-Apr-02 21:00N 25°48' W 080°05'0 0.0
2020-Apr-02 19:30N 25°48' W 080°05'0 0.0
2020-Apr-02 19:00N 25°48' W 080°05'0 0.0
2020-Apr-02 18:30N 25°48' W 080°05'0 0.0
2020-Apr-02 15:30N 25°48' W 080°05'0 0.0
2020-Apr-02 13:27N 25°48' W 080°05'0 0.0
2020-Apr-02 11:57N 25°48' W 080°05'0 0.0
2020-Apr-02 11:00N 25°48' W 080°05'0 0.0
2020-Apr-02 10:30N 25°48' W 080°05'0 0.0
2020-Apr-02 09:30N 25°48' W 080°05'0 0.0
2020-Apr-02 08:00N 25°48' W 080°05'0 0.0
2020-Apr-02 07:30N 25°48' W 080°05'0 0.0
2020-Apr-02 05:30N 25°48' W 080°05'0 0.0
2020-Apr-02 02:30N 25°48' W 080°05'0 0.0
2020-Apr-02 02:00N 25°48' W 080°05'0 0.0
2020-Apr-01 23:00N 25°48' W 080°05'0 0.2
2020-Apr-01 22:30N 25°48' W 080°05'0 0.0
2020-Apr-01 21:30N 25°48' W 080°05'0 0.0
2020-Apr-01 20:57N 25°48' W 080°05'0 0.0
2020-Apr-01 18:30N 25°48' W 080°05'0 0.1
2020-Apr-01 18:00N 25°48' W 080°05'0 0.0
2020-Apr-01 17:00N 25°48' W 080°05'0 0.0
2020-Apr-01 16:30N 25°48' W 080°05'0 0.0
2020-Apr-01 10:30N 25°48' W 080°05'0 0.0
2020-Apr-01 08:00N 25°48' W 080°05'0 0.0
2020-Apr-01 07:30N 25°48' W 080°05'0 0.0
2020-Mar-31 22:00N 25°48' W 080°05'0 0.0
2020-Mar-31 21:00N 25°48' W 080°05'0 0.2
2020-Mar-31 20:27N 25°48' W 080°05'0 0.0
2020-Mar-31 18:00N 25°48' W 080°05'0 0.0
2020-Mar-31 16:30N 25°48' W 080°05'0 0.0
2020-Mar-31 16:00N 25°48' W 080°05'0 0.0
2020-Mar-31 11:30N 25°48' W 080°05'0 0.0
2020-Mar-31 11:00N 25°48' W 080°05'0 0.1
2020-Mar-31 10:01N 25°48' W 080°05'2 3.7
2020-Mar-31 09:30N 25°48' W 080°03'9 8.5
2020-Mar-31 08:30N 25°46' W 079°54'8 7.5
2020-Mar-31 07:30N 25°46' W 079°45'5 4.6
2020-Mar-31 06:30N 25°41' W 079°48'9 6.1
2020-Mar-31 05:00N 25°32' W 079°47'5 6.4
2020-Mar-31 04:15N 25°28' W 079°46'13 3.8
2020-Mar-31 00:49N 25°39' W 079°40'9 7.0
2020-Mar-30 23:30N 25°48' W 079°40'17 8.6
2020-Mar-30 21:31N 25°48' W 079°59'510.0
2020-Mar-30 21:00N 25°48' W 080°05'0 0.1
2020-Mar-30 17:30N 25°48' W 080°05'0 0.0
2020-Mar-30 16:30N 25°48' W 080°05'0 0.0
2020-Mar-30 14:30N 25°48' W 080°05'0 0.0
2020-Mar-30 13:54N 25°48' W 080°05'0 0.0
2020-Mar-30 11:57N 25°48' W 080°05'0 0.0
2020-Mar-30 10:27N 25°48' W 080°05'0 0.0
2020-Mar-30 08:30N 25°48' W 080°05'0 0.0
2020-Mar-30 08:00N 25°48' W 080°05'0 0.0
2020-Mar-30 05:33N 25°48' W 080°05'0 0.0
2020-Mar-30 05:30N 25°48' W 080°05'0 0.0
2020-Mar-30 01:39N 25°48' W 080°05'0 0.1
2020-Mar-30 01:21N 25°48' W 080°05'0 0.0
2020-Mar-29 22:24N 25°48' W 080°05'0 0.0
2020-Mar-29 21:24N 25°48' W 080°05'0 0.0
2020-Mar-29 20:27N 25°48' W 080°05'0 0.0
2020-Mar-29 19:30N 25°48' W 080°05'0 0.0
2020-Mar-29 19:00N 25°48' W 080°05'0 0.0
2020-Mar-29 18:00N 25°48' W 080°05'0 0.0
2020-Mar-29 17:30N 25°48' W 080°05'0 0.0
2020-Mar-29 16:30N 25°48' W 080°05'0 0.0
2020-Mar-29 14:30N 25°48' W 080°05'0 0.0
2020-Mar-29 13:06N 25°48' W 080°05'0 0.0
2020-Mar-29 12:24N 25°48' W 080°05'0 0.0
2020-Mar-29 11:24N 25°48' W 080°05'0 0.0
2020-Mar-29 08:54N 25°48' W 080°05'0 0.0
2020-Mar-29 03:30N 25°48' W 080°05'0 0.0
2020-Mar-29 02:30N 25°48' W 080°05'0 0.0
2020-Mar-29 00:00N 25°48' W 080°05'0 0.0
2020-Mar-28 23:21N 25°48' W 080°05'0 0.0
2020-Mar-28 20:54N 25°48' W 080°05'0 0.0
2020-Mar-28 19:24N 25°48' W 080°05'0 0.0
2020-Mar-28 15:30N 25°48' W 080°05'0 0.0
2020-Mar-28 12:18N 25°48' W 080°05'0 0.0
2020-Mar-28 11:48N 25°48' W 080°05'0 0.0
2020-Mar-28 08:18N 25°48' W 080°05'0 0.0
2020-Mar-28 06:24N 25°48' W 080°05'0 0.0
2020-Mar-28 05:57N 25°48' W 080°05'0 0.0
2020-Mar-28 03:00N 25°48' W 080°05'0 0.0
2020-Mar-28 02:30N 25°48' W 080°05'0 0.0
2020-Mar-28 02:00N 25°48' W 080°05'0 0.0
2020-Mar-28 01:00N 25°48' W 080°05'0 0.0
2020-Mar-27 22:30N 25°48' W 080°05'0 0.0
2020-Mar-27 21:30N 25°48' W 080°05'0 0.0
2020-Mar-27 16:54N 25°48' W 080°05'0 0.1
2020-Mar-27 16:30N 25°48' W 080°05'0 0.1
2020-Mar-27 15:57N 25°48' W 080°05'0 0.0
2020-Mar-27 15:00N 25°48' W 080°05'0 0.0
2020-Mar-27 13:24N 25°48' W 080°05'0 0.0
2020-Mar-27 12:30N 25°48' W 080°05'0 0.0
2020-Mar-27 12:00N 25°48' W 080°05'0 0.0
2020-Mar-27 10:30N 25°48' W 080°05'0 0.0
2020-Mar-27 10:00N 25°48' W 080°05'0 0.0
2020-Mar-27 08:00N 25°48' W 080°05'0 0.0
2020-Mar-27 06:00N 25°48' W 080°05'0 0.0
2020-Mar-27 03:30N 25°48' W 080°05'0 0.0
2020-Mar-26 21:30N 25°48' W 080°05'0 0.0
2020-Mar-26 21:00N 25°48' W 080°05'  
Track history (hours):
 
Tides and Currents Weather Stations Pressure Air Temp Water Temp Dewpoint Dewpoint Depression Visibility Wind Speed Wind Dir Waves Ship Positions

MSC Armonia

Operator: Mediterranean Shipping Company

Last reported at 2020-Apr-05 20:00 UTC. Time now 2020-Apr-05 22:21 UTC.
Position N 25°46' W 079°52'.

Length 275 m; draft 6.8 m.

Type: Ship. MMSI: 357281000.

Date/timePositionNaut miles runAvg speedWind from/ knotsBaromVisibWave heightAir tempDewpointWater temp
2020-Apr-05 20:00N 25°46' W 079°52'11 7.2
2020-Apr-05 18:30N 25°36' W 079°47'12 4.8
2020-Apr-05 16:00N 25°46' W 079°40'7 7.1
2020-Apr-05 15:00N 25°53' W 079°41'3 6.9
2020-Apr-05 14:30N 25°55' W 079°45'611.5
2020-Apr-05 14:00N 25°51' W 079°49'611.5
2020-Apr-05 13:30N 25°48' W 079°55'510.7
2020-Apr-05 13:00N 25°48' W 080°01'4 1.9
2020-Apr-05 11:00N 25°48' W 080°05'0 0.0
2020-Apr-05 08:00N 25°48' W 080°05'0 0.0
2020-Apr-05 07:30N 25°48' W 080°05'0 0.0
2020-Apr-05 07:00N 25°48' W 080°05'0 0.0
2020-Apr-05 06:30N 25°48' W 080°05'0 0.0
2020-Apr-05 01:30N 25°48' W 080°05'0 0.0
2020-Apr-04 23:30N 25°48' W 080°05'0 0.0
2020-Apr-04 22:00N 25°48' W 080°05'0 0.0
2020-Apr-04 21:30N 25°48' W 080°05'0 0.0
2020-Apr-04 20:00N 25°48' W 080°05'0 0.0
2020-Apr-04 19:30N 25°48' W 080°05'0 0.0
2020-Apr-04 17:00N 25°48' W 080°05'0 0.0
2020-Apr-04 15:57N 25°48' W 080°05'0 0.0
2020-Apr-04 15:00N 25°48' W 080°05'0 0.0
2020-Apr-04 14:30N 25°48' W 080°05'0 0.0
2020-Apr-04 13:57N 25°48' W 080°05'0 0.0
2020-Apr-04 13:30N 25°48' W 080°05'0 0.0
2020-Apr-04 11:30N 25°48' W 080°05'0 0.0
2020-Apr-04 11:00N 25°48' W 080°05'0 0.0
2020-Apr-04 10:30N 25°48' W 080°05'0 0.0
2020-Apr-04 10:00N 25°48' W 080°05'0 0.0
2020-Apr-04 07:30N 25°48' W 080°05'0 0.0
2020-Apr-04 04:00N 25°48' W 080°05'0 0.0
2020-Apr-04 03:00N 25°48' W 080°05'0 0.0
2020-Apr-04 02:30N 25°48' W 080°05'0 0.0
2020-Apr-04 01:00N 25°48' W 080°05'0 0.0
2020-Apr-03 22:30N 25°48' W 080°05'0 0.0
2020-Apr-03 22:00N 25°48' W 080°05'0 0.0
2020-Apr-03 21:30N 25°48' W 080°05'0 0.0
2020-Apr-03 20:30N 25°48' W 080°05'0 0.0
2020-Apr-03 19:30N 25°48' W 080°05'0 0.0
2020-Apr-03 16:30N 25°48' W 080°05'0 0.0
2020-Apr-03 16:00N 25°48' W 080°05'0 0.0
2020-Apr-03 15:30N 25°48' W 080°05'0 0.0
2020-Apr-03 12:54N 25°48' W 080°05'0 0.0
2020-Apr-03 11:00N 25°48' W 080°05'0 0.0
2020-Apr-03 10:00N 25°48' W 080°05'0 0.0
2020-Apr-03 08:00N 25°48' W 080°05'0 0.0
2020-Apr-03 07:30N 25°48' W 080°05'0 0.0
2020-Apr-03 06:00N 25°48' W 080°05'0 0.1
2020-Apr-03 05:30N 25°48' W 080°05'0 0.0
2020-Apr-03 04:57N 25°48' W 080°05'0 0.0
2020-Apr-03 04:00N 25°48' W 080°05'0 0.0
2020-Apr-03 03:30N 25°48' W 080°05'0 0.0
2020-Apr-03 02:30N 25°48' W 080°05'0 0.0
2020-Apr-02 21:30N 25°48' W 080°05'0 0.0
2020-Apr-02 21:00N 25°48' W 080°05'0 0.0
2020-Apr-02 19:30N 25°48' W 080°05'0 0.0
2020-Apr-02 19:00N 25°48' W 080°05'0 0.0
2020-Apr-02 18:30N 25°48' W 080°05'0 0.0
2020-Apr-02 15:30N 25°48' W 080°05'0 0.0
2020-Apr-02 13:27N 25°48' W 080°05'0 0.0
2020-Apr-02 11:57N 25°48' W 080°05'0 0.0
2020-Apr-02 11:00N 25°48' W 080°05'0 0.0
2020-Apr-02 10:30N 25°48' W 080°05'0 0.0
2020-Apr-02 09:30N 25°48' W 080°05'0 0.0
2020-Apr-02 08:00N 25°48' W 080°05'0 0.0
2020-Apr-02 07:30N 25°48' W 080°05'0 0.0
2020-Apr-02 05:30N 25°48' W 080°05'0 0.0
2020-Apr-02 02:30N 25°48' W 080°05'0 0.0
2020-Apr-02 02:00N 25°48' W 080°05'0 0.0
2020-Apr-01 23:00N 25°48' W 080°05'0 0.2
2020-Apr-01 22:30N 25°48' W 080°05'0 0.0
2020-Apr-01 21:30N 25°48' W 080°05'0 0.0
2020-Apr-01 20:57N 25°48' W 080°05'0 0.0
2020-Apr-01 18:30N 25°48' W 080°05'0 0.1
2020-Apr-01 18:00N 25°48' W 080°05'0 0.0
2020-Apr-01 17:00N 25°48' W 080°05'0 0.0
2020-Apr-01 16:30N 25°48' W 080°05'0 0.0
2020-Apr-01 10:30N 25°48' W 080°05'0 0.0
2020-Apr-01 08:00N 25°48' W 080°05'0 0.0
2020-Apr-01 07:30N 25°48' W 080°05'0 0.0
2020-Mar-31 22:00N 25°48' W 080°05'0 0.0
2020-Mar-31 21:00N 25°48' W 080°05'0 0.2
2020-Mar-31 20:27N 25°48' W 080°05'0 0.0
2020-Mar-31 18:00N 25°48' W 080°05'0 0.0
2020-Mar-31 16:30N 25°48' W 080°05'0 0.0
2020-Mar-31 16:00N 25°48' W 080°05'0 0.0
2020-Mar-31 11:30N 25°48' W 080°05'0 0.0
2020-Mar-31 11:00N 25°48' W 080°05'0 0.1
2020-Mar-31 10:01N 25°48' W 080°05'2 3.7
2020-Mar-31 09:30N 25°48' W 080°03'9 8.5
2020-Mar-31 08:30N 25°46' W 079°54'8 7.5
2020-Mar-31 07:30N 25°46' W 079°45'5 4.6
2020-Mar-31 06:30N 25°41' W 079°48'9 6.1
2020-Mar-31 05:00N 25°32' W 079°47'5 6.4
2020-Mar-31 04:15N 25°28' W 079°46'13 3.8
2020-Mar-31 00:49N 25°39' W 079°40'9 7.0
2020-Mar-30 23:30N 25°48' W 079°40'17 8.6
2020-Mar-30 21:31N 25°48' W 079°59'510.0
2020-Mar-30 21:00N 25°48' W 080°05'0 0.1
2020-Mar-30 17:30N 25°48' W 080°05'0 0.0
2020-Mar-30 16:30N 25°48' W 080°05'0 0.0
2020-Mar-30 14:30N 25°48' W 080°05'0 0.0
2020-Mar-30 13:54N 25°48' W 080°05'0 0.0
2020-Mar-30 11:57N 25°48' W 080°05'0 0.0
2020-Mar-30 10:27N 25°48' W 080°05'0 0.0
2020-Mar-30 08:30N 25°48' W 080°05'0 0.0
2020-Mar-30 08:00N 25°48' W 080°05'0 0.0
2020-Mar-30 05:33N 25°48' W 080°05'0 0.0
2020-Mar-30 05:30N 25°48' W 080°05'0 0.0
2020-Mar-30 01:39N 25°48' W 080°05'0 0.1
2020-Mar-30 01:21N 25°48' W 080°05'0 0.0
2020-Mar-29 22:24N 25°48' W 080°05'0 0.0
2020-Mar-29 21:24N 25°48' W 080°05'0 0.0
2020-Mar-29 20:27N 25°48' W 080°05'0 0.0
2020-Mar-29 19:30N 25°48' W 080°05'0 0.0
2020-Mar-29 19:00N 25°48' W 080°05'0 0.0
2020-Mar-29 18:00N 25°48' W 080°05'0 0.0
2020-Mar-29 17:30N 25°48' W 080°05'0 0.0
2020-Mar-29 16:30N 25°48' W 080°05'0 0.0
2020-Mar-29 14:30N 25°48' W 080°05'0 0.0
2020-Mar-29 13:06N 25°48' W 080°05'0 0.0
2020-Mar-29 12:24N 25°48' W 080°05'0 0.0
2020-Mar-29 11:24N 25°48' W 080°05'0 0.0
2020-Mar-29 08:54N 25°48' W 080°05'0 0.0
2020-Mar-29 03:30N 25°48' W 080°05'0 0.0
2020-Mar-29 02:30N 25°48' W 080°05'0 0.0
2020-Mar-29 00:00N 25°48' W 080°05'0 0.0
2020-Mar-28 23:21N 25°48' W 080°05'0 0.0
2020-Mar-28 20:54N 25°48' W 080°05'0 0.0
2020-Mar-28 19:24N 25°48' W 080°05'0 0.0
2020-Mar-28 15:30N 25°48' W 080°05'0 0.0
2020-Mar-28 12:18N 25°48' W 080°05'0 0.0
2020-Mar-28 11:48N 25°48' W 080°05'0 0.0
2020-Mar-28 08:18N 25°48' W 080°05'0 0.0
2020-Mar-28 06:24N 25°48' W 080°05'0 0.0
2020-Mar-28 05:57N 25°48' W 080°05'0 0.0
2020-Mar-28 03:00N 25°48' W 080°05'0 0.0
2020-Mar-28 02:30N 25°48' W 080°05'0 0.0
2020-Mar-28 02:00N 25°48' W 080°05'0 0.0
2020-Mar-28 01:00N 25°48' W 080°05'0 0.0
2020-Mar-27 22:30N 25°48' W 080°05'0 0.0
2020-Mar-27 21:30N 25°48' W 080°05'0 0.0
2020-Mar-27 16:54N 25°48' W 080°05'0 0.1
2020-Mar-27 16:30N 25°48' W 080°05'0 0.1
2020-Mar-27 15:57N 25°48' W 080°05'0 0.0
2020-Mar-27 15:00N 25°48' W 080°05'0 0.0
2020-Mar-27 13:24N 25°48' W 080°05'0 0.0
2020-Mar-27 12:30N 25°48' W 080°05'0 0.0
2020-Mar-27 12:00N 25°48' W 080°05'0 0.0
2020-Mar-27 10:30N 25°48' W 080°05'0 0.0
2020-Mar-27 10:00N 25°48' W 080°05'0 0.0
2020-Mar-27 08:00N 25°48' W 080°05'0 0.0
2020-Mar-27 06:00N 25°48' W 080°05'0 0.0
2020-Mar-27 03:30N 25°48' W 080°05'0 0.0
2020-Mar-26 21:30N 25°48' W 080°05'0 0.0
2020-Mar-26 21:00N 25°48' W 080°05'  

Dump ship's entire track history